createdAt,value
2022-08-01T00:00:12.699Z,44.10
2022-08-01T00:02:42.081Z,44.40
2022-08-01T00:05:11.710Z,44.40
2022-08-01T00:07:40.900Z,44.40
2022-08-01T00:10:11.272Z,44.30
2022-08-01T00:12:39.838Z,44.50
2022-08-01T00:15:11.692Z,44.30
2022-08-01T00:17:40.439Z,44.40
2022-08-01T00:20:11.456Z,44.40
2022-08-01T00:22:39.832Z,44.50
2022-08-01T00:25:09.370Z,44.60
2022-08-01T00:27:37.868Z,44.60
2022-08-01T00:30:11.221Z,44.90
2022-08-01T00:32:44.312Z,44.80
2022-08-01T00:35:13.378Z,45.00
2022-08-01T00:37:42.028Z,44.90
2022-08-01T00:40:10.751Z,44.90
2022-08-01T00:42:43.534Z,45.00
2022-08-01T00:45:13.008Z,44.90
2022-08-01T00:47:41.614Z,44.90
2022-08-01T00:50:12.771Z,45.00
2022-08-01T00:52:42.800Z,45.10
2022-08-01T00:55:21.726Z,45.00
2022-08-01T00:58:02.401Z,45.10
2022-08-01T01:00:34.535Z,45.10
2022-08-01T01:03:03.616Z,45.00
2022-08-01T01:05:46.923Z,45.10
2022-08-01T01:08:21.264Z,45.20
2022-08-01T01:10:57.302Z,45.40
2022-08-01T01:13:30.768Z,45.50
2022-08-01T01:16:02.866Z,45.40
2022-08-01T01:18:47.590Z,45.30
2022-08-01T01:21:41.088Z,45.60
2022-08-01T01:24:20.240Z,45.50
2022-08-01T01:26:55.430Z,45.80
2022-08-01T01:29:30.628Z,45.90
2022-08-01T01:32:30.961Z,45.90
2022-08-01T01:35:01.085Z,46.00
2022-08-01T01:37:32.433Z,45.10
2022-08-01T01:40:02.503Z,46.00
2022-08-01T01:42:32.297Z,46.10
2022-08-01T01:45:05.082Z,46.20
2022-08-01T01:47:34.946Z,46.40
2022-08-01T01:50:05.658Z,46.30
2022-08-01T01:52:35.131Z,46.30
2022-08-01T01:55:07.846Z,46.50
2022-08-01T01:57:41.642Z,46.40
2022-08-01T02:00:13.273Z,46.50
2022-08-01T02:02:43.670Z,46.70
2022-08-01T02:05:13.504Z,46.60
2022-08-01T02:07:42.337Z,46.70
2022-08-01T02:10:12.275Z,46.70
2022-08-01T02:12:44.106Z,46.80
2022-08-01T02:15:14.705Z,46.90
2022-08-01T02:17:46.438Z,46.90
2022-08-01T02:20:15.506Z,47.00
2022-08-01T02:22:47.211Z,47.00
2022-08-01T02:25:21.270Z,47.20
2022-08-01T02:27:54.432Z,47.30
2022-08-01T02:30:26.903Z,47.30
2022-08-01T02:33:02.108Z,47.50
2022-08-01T02:35:32.951Z,47.50
2022-08-01T02:38:04.013Z,47.50
2022-08-01T02:40:34.999Z,47.60
2022-08-01T02:43:05.997Z,47.70
2022-08-01T02:45:39.937Z,48.30
2022-08-01T02:48:12.802Z,48.50
2022-08-01T02:50:44.646Z,47.90
2022-08-01T02:53:15.116Z,47.80
2022-08-01T02:55:46.458Z,47.90
2022-08-01T02:58:16.690Z,47.80
2022-08-01T03:00:49.494Z,47.90
2022-08-01T03:03:19.075Z,48.00
2022-08-01T03:05:48.198Z,48.00
2022-08-01T03:08:17.490Z,48.10
2022-08-01T03:10:48.343Z,48.00
2022-08-01T03:13:18.032Z,48.20
2022-08-01T03:15:49.421Z,48.30
2022-08-01T03:18:21.699Z,48.40
2022-08-01T03:20:51.374Z,48.60
2022-08-01T03:23:20.749Z,48.50
2022-08-01T03:25:52.038Z,48.60
2022-08-01T03:28:22.738Z,48.70
2022-08-01T03:31:00.427Z,48.80
2022-08-01T03:33:28.672Z,49.00
2022-08-01T03:35:58.817Z,48.90
2022-08-01T03:38:29.676Z,49.00
2022-08-01T03:41:05.315Z,49.10
2022-08-01T03:43:38.500Z,49.40
2022-08-01T03:46:11.490Z,49.40
2022-08-01T03:48:45.246Z,50.00
2022-08-01T03:51:14.959Z,49.40
2022-08-01T03:53:44.800Z,49.30
2022-08-01T03:56:14.653Z,49.50
2022-08-01T03:58:45.006Z,49.50
2022-08-01T04:01:20.879Z,49.50
2022-08-01T04:03:49.691Z,49.60
2022-08-01T04:06:18.722Z,49.60
2022-08-01T04:08:56.878Z,49.80
2022-08-01T04:11:26.893Z,49.90
2022-08-01T04:13:56.144Z,50.00
2022-08-01T04:16:27.592Z,50.00
2022-08-01T04:18:56.125Z,50.00
2022-08-01T04:21:28.655Z,50.20
2022-08-01T04:24:01.697Z,50.40
2022-08-01T04:26:32.166Z,50.40
2022-08-01T04:29:03.292Z,50.60
2022-08-01T04:31:33.969Z,50.60
2022-08-01T04:34:05.934Z,50.70
2022-08-01T04:36:37.671Z,50.80
2022-08-01T04:39:08.023Z,50.90
2022-08-01T04:41:37.712Z,50.90
2022-08-01T04:44:06.564Z,50.90
2022-08-01T04:46:38.317Z,51.10
2022-08-01T04:49:10.049Z,51.10
2022-08-01T04:51:38.666Z,51.20
2022-08-01T04:54:08.416Z,51.00
2022-08-01T04:56:36.990Z,51.10
2022-08-01T04:59:22.460Z,51.10
2022-08-01T05:01:53.101Z,51.10
2022-08-01T05:04:21.236Z,51.20
2022-08-01T05:06:49.737Z,51.20
2022-08-01T05:09:19.043Z,51.20
2022-08-01T05:11:47.580Z,51.30
2022-08-01T05:14:15.876Z,51.30
2022-08-01T05:16:44.420Z,51.40
2022-08-01T05:19:14.189Z,51.50
2022-08-01T05:21:42.743Z,51.50
2022-08-01T05:24:10.814Z,51.70
2022-08-01T05:26:40.458Z,51.70
2022-08-01T05:29:09.041Z,51.80
2022-08-01T05:31:37.175Z,52.00
2022-08-01T05:34:05.488Z,51.90
2022-08-01T05:36:35.471Z,52.00
2022-08-01T05:39:03.573Z,52.30
2022-08-01T05:41:32.634Z,52.20
2022-08-01T05:44:01.287Z,52.20
2022-08-01T05:46:31.069Z,52.30
2022-08-01T05:49:00.022Z,52.40
2022-08-01T05:51:28.568Z,52.40
2022-08-01T05:53:59.091Z,52.40
2022-08-01T05:56:32.102Z,52.50
2022-08-01T05:59:00.469Z,52.50
2022-08-01T06:01:28.961Z,52.50
2022-08-01T06:03:57.659Z,52.60
2022-08-01T06:06:25.783Z,52.60
2022-08-01T06:08:54.359Z,52.60
2022-08-01T06:11:24.310Z,52.50
2022-08-01T06:13:52.437Z,52.60
2022-08-01T06:16:20.971Z,52.80
2022-08-01T06:18:49.104Z,52.70
2022-08-01T06:21:17.378Z,52.80
2022-08-01T06:23:45.919Z,52.80
2022-08-01T06:26:14.498Z,52.70
2022-08-01T06:28:43.961Z,52.80
2022-08-01T06:31:14.107Z,53.00
2022-08-01T06:33:42.270Z,52.90
2022-08-01T06:36:10.812Z,52.90
2022-08-01T06:38:40.423Z,53.10
2022-08-01T06:41:08.512Z,53.10
2022-08-01T06:43:37.021Z,53.10
2022-08-01T06:46:06.725Z,53.10
2022-08-01T06:48:36.404Z,53.20
2022-08-01T06:51:10.695Z,53.20
2022-08-01T06:53:39.819Z,53.30
2022-08-01T06:56:10.065Z,53.30
2022-08-01T06:58:38.178Z,53.40
2022-08-01T07:01:08.376Z,53.30
2022-08-01T07:03:52.700Z,53.40
2022-08-01T07:06:23.186Z,53.30
2022-08-01T07:08:51.468Z,53.20
2022-08-01T07:11:19.849Z,53.20
2022-08-01T07:13:48.374Z,53.20
2022-08-01T07:16:19.063Z,53.40
2022-08-01T07:18:47.176Z,53.40
2022-08-01T07:21:38.934Z,53.30
2022-08-01T07:24:12.588Z,52.80
2022-08-01T07:26:53.335Z,52.40
2022-08-01T07:29:24.314Z,52.20
2022-08-01T07:31:54.531Z,51.70
2022-08-01T07:34:23.226Z,51.20
2022-08-01T07:36:51.600Z,51.30
2022-08-01T07:39:19.865Z,51.10
2022-08-01T07:42:06.252Z,51.20
2022-08-01T07:44:36.535Z,51.30
2022-08-01T07:47:07.331Z,50.70
2022-08-01T07:49:40.008Z,50.40
2022-08-01T07:52:09.479Z,50.60
2022-08-01T07:54:38.020Z,50.50
2022-08-01T07:57:06.460Z,51.50
2022-08-01T07:59:35.147Z,50.70
2022-08-01T08:02:08.376Z,50.40
2022-08-01T08:04:36.605Z,50.00
2022-08-01T08:07:05.585Z,50.00
2022-08-01T08:09:37.319Z,49.90
2022-08-01T08:12:08.477Z,50.10
2022-08-01T08:14:36.987Z,49.90
2022-08-01T08:17:05.366Z,49.90
2022-08-01T08:19:39.184Z,50.00
2022-08-01T08:22:08.726Z,49.90
2022-08-01T08:24:41.349Z,49.60
2022-08-01T08:27:15.040Z,49.60
2022-08-01T08:29:43.637Z,49.40
2022-08-01T08:32:13.569Z,49.90
2022-08-01T08:34:43.544Z,49.80
2022-08-01T08:37:12.602Z,49.80
2022-08-01T08:39:41.667Z,49.80
2022-08-01T08:42:12.143Z,50.20
2022-08-01T08:44:43.540Z,49.40
2022-08-01T08:47:19.693Z,49.30
2022-08-01T08:49:51.102Z,49.50
2022-08-01T08:52:22.285Z,49.20
2022-08-01T08:54:51.754Z,49.30
2022-08-01T08:57:22.469Z,49.60
2022-08-01T08:59:52.954Z,49.60
2022-08-01T09:02:21.672Z,50.40
2022-08-01T09:04:52.254Z,50.30
2022-08-01T09:07:20.340Z,49.60
2022-08-01T09:09:51.544Z,49.50
2022-08-01T09:12:20.497Z,49.60
2022-08-01T09:14:51.520Z,49.80
2022-08-01T09:17:19.643Z,49.10
2022-08-01T09:19:50.045Z,48.80
2022-08-01T09:22:22.426Z,48.80
2022-08-01T09:25:09.663Z,49.00
2022-08-01T09:27:44.116Z,48.60
2022-08-01T09:30:17.103Z,48.70
2022-08-01T09:32:58.306Z,48.50
2022-08-01T09:35:30.965Z,48.40
2022-08-01T09:38:21.719Z,48.00
2022-08-01T09:40:52.898Z,48.20
2022-08-01T09:43:23.199Z,48.20
2022-08-01T09:45:52.952Z,48.10
2022-08-01T09:48:28.297Z,48.00
2022-08-01T09:51:03.894Z,48.30
2022-08-01T09:53:52.091Z,48.00
2022-08-01T09:56:22.258Z,47.70
2022-08-01T09:58:59.978Z,47.90
2022-08-01T10:01:37.499Z,47.60
2022-08-01T10:04:09.776Z,47.60
2022-08-01T10:06:39.516Z,47.70
2022-08-01T10:09:10.930Z,47.60
2022-08-01T10:11:40.603Z,47.70
2022-08-01T10:14:09.600Z,47.50
2022-08-01T10:16:39.683Z,47.50
2022-08-01T10:19:14.537Z,47.40
2022-08-01T10:21:56.343Z,47.60
2022-08-01T10:24:30.120Z,47.20
2022-08-01T10:27:05.863Z,47.20
2022-08-01T10:29:46.229Z,47.60
2022-08-01T10:32:29.730Z,46.60
2022-08-01T10:34:58.453Z,47.00
2022-08-01T10:37:27.186Z,46.50
2022-08-01T10:40:27.140Z,46.60
2022-08-01T10:42:47.130Z,46.60
2022-08-01T10:45:17.687Z,46.30
2022-08-01T10:47:53.467Z,47.10
2022-08-01T10:50:28.929Z,47.40
2022-08-01T10:53:16.247Z,47.60
2022-08-01T10:56:01.453Z,47.60
2022-08-01T10:58:39.558Z,47.70
2022-08-01T11:01:26.463Z,47.70
2022-08-01T11:04:13.790Z,47.90
2022-08-01T11:06:54.914Z,47.80
2022-08-01T11:09:36.442Z,47.70
2022-08-01T11:12:13.110Z,47.60
2022-08-01T11:15:28.696Z,47.60
2022-08-01T11:18:01.403Z,47.50
2022-08-01T11:20:32.816Z,47.50
2022-08-01T11:23:35.886Z,47.40
2022-08-01T11:26:29.308Z,47.20
2022-08-01T11:29:21.228Z,46.10
2022-08-01T11:31:50.867Z,46.70
2022-08-01T11:34:19.165Z,46.60
2022-08-01T11:36:59.015Z,46.50
2022-08-01T11:39:28.243Z,46.20
2022-08-01T11:42:18.221Z,46.60
2022-08-01T11:44:53.660Z,46.50
2022-08-01T11:47:46.358Z,46.30
2022-08-01T11:50:38.026Z,46.20
2022-08-01T11:53:09.156Z,45.90
2022-08-01T11:55:39.478Z,45.80
2022-08-01T11:58:22.490Z,45.50
2022-08-01T12:01:00.625Z,45.00
2022-08-01T12:03:33.429Z,44.90
2022-08-01T12:06:02.457Z,44.60
2022-08-01T12:08:33.945Z,44.70
2022-08-01T12:11:03.425Z,44.80
2022-08-01T12:13:43.302Z,45.00
2022-08-01T12:16:13.922Z,45.40
2022-08-01T12:18:43.240Z,45.50
2022-08-01T12:21:11.400Z,45.60
2022-08-01T12:23:39.608Z,45.70
2022-08-01T12:26:08.166Z,45.60
2022-08-01T12:28:41.709Z,45.10
2022-08-01T12:31:10.331Z,45.10
2022-08-01T12:33:42.297Z,45.10
2022-08-01T12:36:14.643Z,44.50
2022-08-01T12:38:43.576Z,44.20
2022-08-01T12:41:12.977Z,44.00
2022-08-01T12:43:42.601Z,43.90
2022-08-01T12:46:17.132Z,43.60
2022-08-01T12:48:47.876Z,43.10
2022-08-01T12:51:16.178Z,43.10
2022-08-01T12:53:44.760Z,43.10
2022-08-01T12:56:13.453Z,43.10
2022-08-01T12:58:41.825Z,42.80
2022-08-01T13:01:13.454Z,42.60
2022-08-01T13:03:41.981Z,42.90
2022-08-01T13:06:17.150Z,42.40
2022-08-01T13:08:47.451Z,41.70
2022-08-01T13:11:18.261Z,42.20
2022-08-01T13:13:49.775Z,42.10
2022-08-01T13:16:27.918Z,42.00
2022-08-01T13:19:07.919Z,41.80
2022-08-01T13:21:54.107Z,41.70
2022-08-01T13:24:28.464Z,41.60
2022-08-01T13:27:00.161Z,41.70
2022-08-01T13:29:33.526Z,41.30
2022-08-01T13:32:27.755Z,41.50
2022-08-01T13:35:04.446Z,41.70
2022-08-01T13:37:33.987Z,41.70
2022-08-01T13:40:02.533Z,41.80
2022-08-01T13:42:31.249Z,42.00
2022-08-01T13:44:59.796Z,42.20
2022-08-01T13:47:31.267Z,42.40
2022-08-01T13:50:01.937Z,42.40
2022-08-01T13:52:32.083Z,42.50
2022-08-01T13:55:03.468Z,42.20
2022-08-01T13:57:39.509Z,42.00
2022-08-01T14:00:10.171Z,42.00
2022-08-01T14:02:39.046Z,41.80
2022-08-01T14:05:07.980Z,41.90
2022-08-01T14:07:36.490Z,41.80
2022-08-01T14:10:19.813Z,42.00
2022-08-01T14:12:48.716Z,42.20
2022-08-01T14:15:38.418Z,41.90
2022-08-01T14:18:05.876Z,41.70
2022-08-01T14:20:35.000Z,41.40
2022-08-01T14:23:03.140Z,41.00
2022-08-01T14:26:01.453Z,41.00
2022-08-01T14:28:22.071Z,40.90
2022-08-01T14:30:50.142Z,40.90
2022-08-01T14:33:18.763Z,40.80
2022-08-01T14:36:05.677Z,40.90
2022-08-01T14:38:35.409Z,40.90
2022-08-01T14:41:04.977Z,40.40
2022-08-01T14:43:34.382Z,40.00
2022-08-01T14:46:04.931Z,39.90
2022-08-01T14:48:33.670Z,39.60
2022-08-01T14:51:04.284Z,39.40
2022-08-01T14:53:35.902Z,39.40
2022-08-01T14:56:06.460Z,39.40
2022-08-01T14:58:34.755Z,39.10
2022-08-01T15:01:03.836Z,39.60
2022-08-01T15:03:33.188Z,39.70
2022-08-01T15:06:01.474Z,39.90
2022-08-01T15:08:31.374Z,39.50
2022-08-01T15:10:59.910Z,39.70
2022-08-01T15:13:31.678Z,39.70
2022-08-01T15:16:00.488Z,39.50
2022-08-01T15:18:29.513Z,39.30
2022-08-01T15:20:58.360Z,39.10
2022-08-01T15:23:26.521Z,38.70
2022-08-01T15:25:55.345Z,38.60
2022-08-01T15:28:23.416Z,38.30
2022-08-01T15:30:53.344Z,38.00
2022-08-01T15:33:22.673Z,37.60
2022-08-01T15:35:52.906Z,37.30
2022-08-01T15:38:22.949Z,37.10
2022-08-01T15:40:51.482Z,37.10
2022-08-01T15:43:19.666Z,37.10
2022-08-01T15:45:49.440Z,37.20
2022-08-01T15:48:19.328Z,37.30
2022-08-01T15:50:47.864Z,37.00
2022-08-01T15:53:16.019Z,37.10
2022-08-01T15:55:52.673Z,37.20
2022-08-01T15:58:21.848Z,37.10
2022-08-01T16:00:50.381Z,37.10
2022-08-01T16:03:20.368Z,36.90
2022-08-01T16:05:50.572Z,36.90
2022-08-01T16:08:18.924Z,36.70
2022-08-01T16:10:47.058Z,36.70
2022-08-01T16:13:15.311Z,36.70
2022-08-01T16:15:45.176Z,36.60
2022-08-01T16:18:14.546Z,36.70
2022-08-01T16:20:46.066Z,36.40
2022-08-01T16:23:15.655Z,36.70
2022-08-01T16:25:45.165Z,36.80
2022-08-01T16:28:14.308Z,36.90
2022-08-01T16:30:52.163Z,37.00
2022-08-01T16:33:45.047Z,37.00
2022-08-01T16:36:21.647Z,37.10
2022-08-01T16:38:51.790Z,37.00
2022-08-01T16:41:20.594Z,37.20
2022-08-01T16:43:53.633Z,37.20
2022-08-01T16:46:24.142Z,37.20
2022-08-01T16:48:52.505Z,37.30
2022-08-01T16:51:22.547Z,37.20
2022-08-01T16:53:51.211Z,37.30
2022-08-01T16:56:20.668Z,37.30
2022-08-01T16:58:48.789Z,37.30
2022-08-01T17:01:52.808Z,37.30
2022-08-01T17:04:07.045Z,36.90
2022-08-01T17:06:36.640Z,37.40
2022-08-01T17:09:05.033Z,37.50
2022-08-01T17:11:33.415Z,37.60
2022-08-01T17:14:01.495Z,37.80
2022-08-01T17:16:30.041Z,37.90
2022-08-01T17:18:58.275Z,38.10
2022-08-01T17:21:26.397Z,38.30
2022-08-01T17:23:56.412Z,38.40
2022-08-01T17:26:24.546Z,38.90
2022-08-01T17:28:53.079Z,38.90
2022-08-01T17:31:21.173Z,38.90
2022-08-01T17:33:54.509Z,39.20
2022-08-01T17:36:23.227Z,39.90
2022-08-01T17:38:51.359Z,39.50
2022-08-01T17:41:20.976Z,39.80
2022-08-01T17:43:49.493Z,40.20
2022-08-01T17:46:18.497Z,40.10
2022-08-01T17:48:47.127Z,40.10
2022-08-01T17:51:19.324Z,40.20
2022-08-01T17:53:53.186Z,40.30
2022-08-01T17:56:26.651Z,40.50
2022-08-01T17:58:55.255Z,40.60
2022-08-01T18:01:26.693Z,40.70
2022-08-01T18:03:57.755Z,40.80
2022-08-01T18:06:26.718Z,40.90
2022-08-01T18:08:56.635Z,40.90
2022-08-01T18:11:29.303Z,41.10
2022-08-01T18:14:06.398Z,41.30
2022-08-01T18:16:35.041Z,41.30
2022-08-01T18:19:03.567Z,41.50
2022-08-01T18:21:34.109Z,41.50
2022-08-01T18:24:02.951Z,41.60
2022-08-01T18:26:32.423Z,41.80
2022-08-01T18:29:00.548Z,41.90
2022-08-01T18:31:29.091Z,41.90
2022-08-01T18:33:57.200Z,42.00
2022-08-01T18:36:32.684Z,42.30
2022-08-01T18:39:04.298Z,42.30
2022-08-01T18:41:34.861Z,42.30
2022-08-01T18:44:05.747Z,42.50
2022-08-01T18:46:37.366Z,42.60
2022-08-01T18:49:06.538Z,42.80
2022-08-01T18:51:38.935Z,42.70
2022-08-01T18:54:11.465Z,42.90
2022-08-01T18:56:41.084Z,42.90
2022-08-01T18:59:09.785Z,43.10
2022-08-01T19:01:39.703Z,43.30
2022-08-01T19:04:08.771Z,43.30
2022-08-01T19:06:37.267Z,43.40
2022-08-01T19:09:05.914Z,43.40
2022-08-01T19:11:35.183Z,43.50
2022-08-01T19:14:04.809Z,43.70
2022-08-01T19:16:33.529Z,44.00
2022-08-01T19:19:04.822Z,44.00
2022-08-01T19:21:33.596Z,44.00
2022-08-01T19:24:23.476Z,44.00
2022-08-01T19:26:54.410Z,44.10
2022-08-01T19:29:35.052Z,44.10
2022-08-01T19:32:06.458Z,44.30
2022-08-01T19:34:36.778Z,44.30
2022-08-01T19:37:05.553Z,44.40
2022-08-01T19:39:33.880Z,44.30
2022-08-01T19:42:04.075Z,44.50
2022-08-01T19:44:34.140Z,44.60
2022-08-01T19:47:03.305Z,44.60
2022-08-01T19:49:31.534Z,44.80
2022-08-01T19:52:03.187Z,44.80
2022-08-01T19:54:35.672Z,45.00
2022-08-01T19:57:07.099Z,45.20
2022-08-01T19:59:37.888Z,45.20
2022-08-01T20:02:07.747Z,45.30
2022-08-01T20:04:37.767Z,45.40
2022-08-01T20:07:06.175Z,45.50
2022-08-01T20:09:35.537Z,45.50
2022-08-01T20:12:04.235Z,45.70
2022-08-01T20:14:32.631Z,45.80
2022-08-01T20:17:02.962Z,45.80
2022-08-01T20:19:32.542Z,45.90
2022-08-01T20:22:04.527Z,45.80
2022-08-01T20:24:39.513Z,45.90
2022-08-01T20:27:10.600Z,46.20
2022-08-01T20:29:39.770Z,46.10
2022-08-01T20:32:10.216Z,46.20
2022-08-01T20:34:40.463Z,46.40
2022-08-01T20:37:12.959Z,46.50
2022-08-01T20:39:44.899Z,46.40
2022-08-01T20:42:15.261Z,46.60
2022-08-01T20:44:45.440Z,46.60
2022-08-01T20:47:16.133Z,46.60
2022-08-01T20:49:45.546Z,46.90
2022-08-01T20:52:13.669Z,46.80
2022-08-01T20:54:42.654Z,47.00
2022-08-01T20:57:16.577Z,47.10
2022-08-01T20:59:55.860Z,47.30
2022-08-01T21:02:48.238Z,47.40
2022-08-01T21:05:23.121Z,47.50
2022-08-01T21:07:54.161Z,47.50
2022-08-01T21:10:26.482Z,47.40
2022-08-01T21:13:02.992Z,47.70
2022-08-01T21:15:32.853Z,47.90
2022-08-01T21:18:08.508Z,47.80
2022-08-01T21:20:41.173Z,48.00
2022-08-01T21:23:21.883Z,48.10
2022-08-01T21:25:50.134Z,48.30
2022-08-01T21:28:20.490Z,47.90
2022-08-01T21:30:53.739Z,48.20
2022-08-01T21:33:26.996Z,48.10
2022-08-01T21:35:59.145Z,48.10
2022-08-01T21:38:30.252Z,48.10
2022-08-01T21:41:01.562Z,48.20
2022-08-01T21:43:34.762Z,48.30
2022-08-01T21:46:03.947Z,48.40
2022-08-01T21:48:34.241Z,48.40
2022-08-01T21:51:06.735Z,48.60
2022-08-01T21:53:47.556Z,48.60
2022-08-01T21:56:28.178Z,48.60
2022-08-01T21:59:03.911Z,48.80
2022-08-01T22:01:51.386Z,48.70
2022-08-01T22:04:34.624Z,48.80
2022-08-01T22:07:04.390Z,48.90
2022-08-01T22:09:33.881Z,49.00
2022-08-01T22:12:06.775Z,49.10
2022-08-01T22:14:39.191Z,49.20
2022-08-01T22:17:08.596Z,48.00
2022-08-01T22:19:45.590Z,49.00
2022-08-01T22:22:50.648Z,49.10
2022-08-01T22:25:05.182Z,49.10
2022-08-01T22:28:08.341Z,49.20
2022-08-01T22:30:22.929Z,49.20
2022-08-01T22:33:07.172Z,49.10
2022-08-01T22:35:39.897Z,48.20
2022-08-01T22:38:09.907Z,49.30
2022-08-01T22:40:41.191Z,49.20
2022-08-01T22:43:19.163Z,49.40
2022-08-01T22:45:53.693Z,49.50
2022-08-01T22:48:27.899Z,49.40
2022-08-01T22:51:08.077Z,49.50
2022-08-01T22:53:44.570Z,49.70
2022-08-01T22:56:14.028Z,49.60
2022-08-01T22:58:42.950Z,49.60
2022-08-01T23:01:20.921Z,49.60
2022-08-01T23:03:56.379Z,49.70
2022-08-01T23:06:34.789Z,49.80
2022-08-01T23:09:05.029Z,49.90
2022-08-01T23:11:34.265Z,49.90
2022-08-01T23:14:05.526Z,49.90
2022-08-01T23:16:34.236Z,50.10
2022-08-01T23:19:02.458Z,50.00
2022-08-01T23:21:33.657Z,50.10
2022-08-01T23:24:02.801Z,50.30
2022-08-01T23:26:31.843Z,50.30
2022-08-01T23:29:00.219Z,50.40
2022-08-01T23:32:02.728Z,50.40
2022-08-01T23:34:20.187Z,50.40
2022-08-01T23:36:50.499Z,50.30
2022-08-01T23:39:18.670Z,50.50
2022-08-01T23:41:57.854Z,50.40
2022-08-01T23:44:27.813Z,50.50
2022-08-01T23:46:55.939Z,50.40
2022-08-01T23:49:24.279Z,50.40
2022-08-01T23:51:54.961Z,50.40
2022-08-01T23:54:23.169Z,50.70
2022-08-01T23:56:52.804Z,50.70
2022-08-01T23:59:21.489Z,50.80
